sensor_id;sensor_type;location;lat;lon;timestamp;temperature;humidity
53782;DHT22;39692;53.114;7.060;2023-03-14T11:52:49;13.90;99.90
53782;DHT22;39692;53.114;7.060;2023-03-14T11:55:33;14.10;99.90
53782;DHT22;39692;53.114;7.060;2023-03-14T11:58:25;14.60;90.90
53782;DHT22;39692;53.114;7.060;2023-03-14T12:00:53;13.70;92.50
53782;DHT22;39692;53.114;7.060;2023-03-14T12:06:49;11.30;93.90
53782;DHT22;39692;53.114;7.060;2023-03-14T12:09:17;10.40;99.90
53782;DHT22;39692;53.114;7.060;2023-03-14T12:12:04;10.20;99.90
53782;DHT22;39692;53.114;7.060;2023-03-14T12:14:37;10.40;99.90
53782;DHT22;39692;53.114;7.060;2023-03-14T12:22:33;16.40;94.50
53782;DHT22;39692;53.114;7.060;2023-03-14T12:51:04;13.00;94.80
53782;DHT22;39692;53.114;7.060;2023-03-14T12:53:44;12.10;91.10
53782;DHT22;39692;53.114;7.060;2023-03-14T13:04:43;11.20;94.30
53782;DHT22;39692;53.114;7.060;2023-03-14T13:10:15;12.90;94.30
53782;DHT22;39692;53.114;7.060;2023-03-14T13:13:22;13.20;93.00
53782;DHT22;39692;53.114;7.060;2023-03-14T13:18:36;12.30;93.90
53782;DHT22;39692;53.114;7.060;2023-03-14T13:21:21;11.80;93.00
53782;DHT22;39692;53.114;7.060;2023-03-14T13:23:59;11.30;93.10
53782;DHT22;39692;53.114;7.060;2023-03-14T13:26:32;11.30;93.40
53782;DHT22;39692;53.114;7.060;2023-03-14T13:28:59;11.50;93.40
53782;DHT22;39692;53.114;7.060;2023-03-14T13:31:26;11.70;93.30
53782;DHT22;39692;53.114;7.060;2023-03-14T13:34:02;12.30;92.90
53782;DHT22;39692;53.114;7.060;2023-03-14T13:36:30;12.60;91.80
53782;DHT22;39692;53.114;7.060;2023-03-14T13:38:57;12.60;91.90
53782;DHT22;39692;53.114;7.060;2023-03-14T13:41:24;12.30;91.50
53782;DHT22;39692;53.114;7.060;2023-03-14T13:43:51;12.10;91.70
53782;DHT22;39692;53.114;7.060;2023-03-14T13:46:23;12.00;91.80
53782;DHT22;39692;53.114;7.060;2023-03-14T13:48:55;11.80;91.90
53782;DHT22;39692;53.114;7.060;2023-03-14T13:51:22;11.70;92.20
53782;DHT22;39692;53.114;7.060;2023-03-14T13:53:50;11.70;92.40
53782;DHT22;39692;53.114;7.060;2023-03-14T13:56:18;11.30;92.10
53782;DHT22;39692;53.114;7.060;2023-03-14T13:58:45;11.00;92.40
53782;DHT22;39692;53.114;7.060;2023-03-14T14:01:18;10.70;92.80
53782;DHT22;39692;53.114;7.060;2023-03-14T14:03:47;10.40;93.40
53782;DHT22;39692;53.114;7.060;2023-03-14T14:06:30;10.10;93.70
53782;DHT22;39692;53.114;7.060;2023-03-14T14:09:01;10.10;93.60
53782;DHT22;39692;53.114;7.060;2023-03-14T14:14:05;10.50;92.30
53782;DHT22;39692;53.114;7.060;2023-03-14T14:16:31;10.70;92.50
53782;DHT22;39692;53.114;7.060;2023-03-14T14:18:59;11.00;92.60
53782;DHT22;39692;53.114;7.060;2023-03-14T14:21:26;10.80;90.30
53782;DHT22;39692;53.114;7.060;2023-03-14T14:23:53;10.60;91.30
53782;DHT22;39692;53.114;7.060;2023-03-14T14:26:20;10.50;92.50
53782;DHT22;39692;53.114;7.060;2023-03-14T14:28:46;10.40;93.20
53782;DHT22;39692;53.114;7.060;2023-03-14T14:33:54;10.00;93.40
53782;DHT22;39692;53.114;7.060;2023-03-14T14:36:38;9.90;93.70
53782;DHT22;39692;53.114;7.060;2023-03-14T14:39:17;10.00;93.80
53782;DHT22;39692;53.114;7.060;2023-03-14T14:41:44;9.80;94.10
53782;DHT22;39692;53.114;7.060;2023-03-14T14:44:13;9.60;94.90
53782;DHT22;39692;53.114;7.060;2023-03-14T14:46:42;9.70;94.80
53782;DHT22;39692;53.114;7.060;2023-03-14T14:49:18;9.50;95.30
53782;DHT22;39692;53.114;7.060;2023-03-14T14:51:48;9.60;95.40
53782;DHT22;39692;53.114;7.060;2023-03-14T14:54:20;9.70;95.70
53782;DHT22;39692;53.114;7.060;2023-03-14T14:57:02;9.70;95.90
53782;DHT22;39692;53.114;7.060;2023-03-14T15:02:02;9.50;95.00
53782;DHT22;39692;53.114;7.060;2023-03-14T15:04:31;9.30;95.40
53782;DHT22;39692;53.114;7.060;2023-03-14T15:06:57;9.10;95.50
53782;DHT22;39692;53.114;7.060;2023-03-14T15:09:22;8.90;97.10
53782;DHT22;39692;53.114;7.060;2023-03-14T15:11:48;8.80;96.90
53782;DHT22;39692;53.114;7.060;2023-03-14T15:14:14;8.50;96.10
53782;DHT22;39692;53.114;7.060;2023-03-14T15:19:21;8.30;99.80
53782;DHT22;39692;53.114;7.060;2023-03-14T15:21:48;8.20;99.40
53782;DHT22;39692;53.114;7.060;2023-03-14T15:24:14;8.10;99.90
53782;DHT22;39692;53.114;7.060;2023-03-14T15:26:40;8.00;99.90
53782;DHT22;39692;53.114;7.060;2023-03-14T15:29:06;8.00;99.90
53782;DHT22;39692;53.114;7.060;2023-03-14T15:31:34;7.90;99.90
53782;DHT22;39692;53.114;7.060;2023-03-14T15:34:00;8.00;99.90
53782;DHT22;39692;53.114;7.060;2023-03-14T15:36:28;8.00;99.90
53782;DHT22;39692;53.114;7.060;2023-03-14T15:38:54;8.00;99.90
53782;DHT22;39692;53.114;7.060;2023-03-14T15:41:21;8.00;99.90
53782;DHT22;39692;53.114;7.060;2023-03-14T15:43:48;7.80;99.90
53782;DHT22;39692;53.114;7.060;2023-03-14T15:46:14;7.70;99.90
53782;DHT22;39692;53.114;7.060;2023-03-14T15:48:43;7.70;99.90
53782;DHT22;39692;53.114;7.060;2023-03-14T15:51:09;7.70;99.90
53782;DHT22;39692;53.114;7.060;2023-03-14T15:53:35;7.70;99.90
53782;DHT22;39692;53.114;7.060;2023-03-14T15:56:05;7.80;99.90
53782;DHT22;39692;53.114;7.060;2023-03-14T15:58:31;7.90;99.90
53782;DHT22;39692;53.114;7.060;2023-03-14T16:01:02;8.00;99.90
53782;DHT22;39692;53.114;7.060;2023-03-14T16:03:28;7.70;99.90
53782;DHT22;39692;53.114;7.060;2023-03-14T16:05:55;7.80;99.10
53782;DHT22;39692;53.114;7.060;2023-03-14T16:08:22;7.70;98.30
53782;DHT22;39692;53.114;7.060;2023-03-14T16:10:48;7.60;99.90
53782;DHT22;39692;53.114;7.060;2023-03-14T16:13:15;7.60;99.90
53782;DHT22;39692;53.114;7.060;2023-03-14T16:15:40;7.10;99.90
53782;DHT22;39692;53.114;7.060;2023-03-14T16:18:06;7.10;99.90
53782;DHT22;39692;53.114;7.060;2023-03-14T16:20:32;6.90;99.90
53782;DHT22;39692;53.114;7.060;2023-03-14T16:22:57;6.90;99.90
53782;DHT22;39692;53.114;7.060;2023-03-14T16:25:23;6.80;99.90
53782;DHT22;39692;53.114;7.060;2023-03-14T16:30:15;6.50;99.90
53782;DHT22;39692;53.114;7.060;2023-03-14T16:32:41;6.50;99.90
53782;DHT22;39692;53.114;7.060;2023-03-14T16:35:07;6.70;99.90
53782;DHT22;39692;53.114;7.060;2023-03-14T16:37:32;6.40;99.90
53782;DHT22;39692;53.114;7.060;2023-03-14T16:42:24;6.30;99.90
53782;DHT22;39692;53.114;7.060;2023-03-14T16:44:50;6.30;99.90
53782;DHT22;39692;53.114;7.060;2023-03-14T16:47:15;6.30;99.90
53782;DHT22;39692;53.114;7.060;2023-03-14T17:09:12;5.70;99.90
53782;DHT22;39692;53.114;7.060;2023-03-14T17:18:57;5.50;99.90
